Time;durP1;ratioP1;P1;durP2;ratioP2;P2;SDS_P1;SDS_P2;PMS_P1;PMS_P2;Temp;Humidity;BMP_temperature;BMP_pressure;BME280_temperature;BME280_humidity;BME280_pressure;Samples;Min_cycle;Max_cycle;Signal;HPM_P1;HPM_P2
2023/08/27 00:01:56;;;;;;;3.58;2.58;;;;;;;14.68;100.00;100930.38;5034321;28;20096;-78
2023/08/27 00:04:21;;;;;;;2.58;2.35;;;;;;;14.60;100.00;100927.59;5016780;28;20449;-78
2023/08/27 00:06:46;;;;;;;3.50;2.30;;;;;;;14.53;100.00;100918.53;5029387;28;20040;-77
2023/08/27 00:09:12;;;;;;;3.63;2.50;;;;;;;14.51;100.00;100907.25;5047244;28;20477;-78
2023/08/27 00:11:38;;;;;;;2.90;2.10;;;;;;;14.47;100.00;100895.25;5046312;28;20064;-78
2023/08/27 00:14:03;;;;;;;4.05;2.30;;;;;;;14.40;100.00;100889.63;5037242;28;20032;-78
2023/08/27 00:16:29;;;;;;;3.67;2.00;;;;;;;14.38;100.00;100889.75;5044256;28;20078;-78
2023/08/27 00:18:54;;;;;;;3.42;2.33;;;;;;;14.39;100.00;100878.19;5040978;28;20017;-77
2023/08/27 00:21:19;;;;;;;2.92;2.50;;;;;;;14.38;100.00;100870.38;5013586;28;20026;-78
2023/08/27 00:23:45;;;;;;;3.63;3.00;;;;;;;14.38;100.00;100873.03;5030146;28;20040;-77
2023/08/27 00:26:12;;;;;;;3.80;2.60;;;;;;;14.39;100.00;100858.81;5048016;28;20423;-78
2023/08/27 00:28:37;;;;;;;5.50;2.88;;;;;;;14.36;100.00;100849.34;5047074;28;20043;-78
2023/08/27 00:31:03;;;;;;;4.65;2.63;;;;;;;14.34;100.00;100843.34;5029557;28;20029;-78
2023/08/27 00:33:29;;;;;;;2.83;2.30;;;;;;;14.36;100.00;100845.88;5035027;28;20035;-77
2023/08/27 00:35:54;;;;;;;3.22;2.47;;;;;;;14.36;100.00;100841.41;5048995;28;20100;-77
2023/08/27 00:38:20;;;;;;;2.75;2.42;;;;;;;14.33;100.00;100846.16;5026508;28;20029;-77
2023/08/27 00:40:45;;;;;;;3.00;2.20;;;;;;;14.30;100.00;100841.97;5008190;28;20029;-77
2023/08/27 00:43:10;;;;;;;4.40;2.25;;;;;;;14.27;100.00;100846.69;5014302;28;20025;-77
2023/08/27 00:45:36;;;;;;;3.03;2.28;;;;;;;14.23;100.00;100840.00;5048975;28;20053;-77
2023/08/27 00:48:02;;;;;;;4.18;2.20;;;;;;;14.24;100.00;100839.03;5041580;28;20104;-77
2023/08/27 00:50:27;;;;;;;3.17;1.88;;;;;;;14.21;100.00;100836.66;5061201;28;20258;-78
2023/08/27 00:52:53;;;;;;;3.33;2.33;;;;;;;14.09;100.00;100841.25;5025768;28;20088;-77
2023/08/27 00:55:19;;;;;;;10.35;2.50;;;;;;;14.08;100.00;100836.94;5037925;28;20039;-77
2023/08/27 00:57:45;;;;;;;3.15;2.60;;;;;;;14.04;100.00;100824.94;5044367;28;20021;-77
2023/08/27 01:00:11;;;;;;;3.90;2.38;;;;;;;14.02;100.00;100833.03;5044655;28;20090;-77
2023/08/27 01:02:42;;;;;;;3.40;2.33;;;;;;;14.03;100.00;100833.84;5049445;28;20024;-77
2023/08/27 01:05:08;;;;;;;2.80;2.28;;;;;;;14.00;100.00;100834.09;5040452;28;20068;-77
2023/08/27 01:07:47;;;;;;;2.40;2.08;;;;;;;13.98;100.00;100836.88;5031724;28;20033;-78
2023/08/27 01:10:22;;;;;;;2.75;2.28;;;;;;;13.90;100.00;100831.44;5029074;28;20022;-78
2023/08/27 01:13:08;;;;;;;3.50;2.35;;;;;;;13.90;100.00;100828.78;5026687;28;20034;-78
2023/08/27 01:15:34;;;;;;;2.65;2.33;;;;;;;13.91;100.00;100824.34;5061190;28;20120;-78
2023/08/27 01:18:02;;;;;;;2.92;2.22;;;;;;;13.87;100.00;100817.66;5034709;28;20021;-78
2023/08/27 01:20:29;;;;;;;2.95;2.60;;;;;;;13.78;100.00;100822.78;5041928;28;20021;-78
2023/08/27 01:22:54;;;;;;;6.28;2.47;;;;;;;13.69;100.00;100818.31;5049352;28;20029;-78
2023/08/27 01:25:24;;;;;;;4.93;2.20;;;;;;;13.68;100.00;100816.63;5047246;28;20143;-78
2023/08/27 01:28:02;;;;;;;4.32;2.40;;;;;;;13.60;100.00;100820.91;5018095;28;20086;-78
2023/08/27 01:30:33;;;;;;;4.75;2.10;;;;;;;13.68;100.00;100821.91;5047023;28;20805;-78
2023/08/27 01:33:03;;;;;;;2.85;2.25;;;;;;;13.70;100.00;100819.16;5049281;28;20017;-78
2023/08/27 01:35:30;;;;;;;3.67;2.20;;;;;;;13.65;100.00;100808.97;5040360;28;20481;-78
2023/08/27 01:37:56;;;;;;;2.10;1.90;;;;;;;13.65;100.00;100803.69;5029367;28;20030;-78
2023/08/27 01:40:21;;;;;;;2.97;2.17;;;;;;;13.64;100.00;100796.72;5029386;28;20156;-78
2023/08/27 01:42:47;;;;;;;2.47;2.08;;;;;;;13.58;100.00;100799.88;5027490;28;20025;-78
2023/08/27 01:45:13;;;;;;;2.15;1.92;;;;;;;13.52;100.00;100803.06;5026199;28;20017;-78
2023/08/27 01:47:38;;;;;;;4.00;2.22;;;;;;;13.63;100.00;100816.19;5049014;28;20045;-78
2023/08/27 01:50:05;;;;;;;3.55;2.35;;;;;;;13.56;100.00;100804.47;5045575;28;20029;-78
2023/08/27 01:52:31;;;;;;;3.05;2.30;;;;;;;13.59;100.00;100804.19;5046887;28;20021;-77
2023/08/27 01:54:57;;;;;;;3.45;2.45;;;;;;;13.57;100.00;100795.56;5041236;28;20029;-78
2023/08/27 01:57:22;;;;;;;3.25;2.55;;;;;;;13.61;100.00;100810.22;5047369;28;20545;-78
2023/08/27 01:59:48;;;;;;;2.88;2.40;;;;;;;13.55;100.00;100794.84;5046879;28;20024;-77
2023/08/27 02:02:13;;;;;;;3.00;2.15;;;;;;;13.59;100.00;100798.91;5033118;28;20021;-78
2023/08/27 02:04:38;;;;;;;3.13;2.10;;;;;;;13.58;100.00;100789.31;5048585;28;20025;-78
2023/08/27 02:07:04;;;;;;;3.03;2.33;;;;;;;13.63;100.00;100799.50;5035355;28;20025;-77
2023/08/27 02:09:29;;;;;;;3.00;2.40;;;;;;;13.62;100.00;100798.66;5051261;28;20074;-77
2023/08/27 02:11:54;;;;;;;3.25;2.38;;;;;;;13.66;100.00;100800.06;5049851;28;20061;-77
2023/08/27 02:14:20;;;;;;;3.03;2.30;;;;;;;13.69;100.00;100810.38;5051846;28;20043;-77
2023/08/27 02:16:45;;;;;;;3.95;2.45;;;;;;;13.65;100.00;100801.03;5051155;28;20021;-77
2023/08/27 02:19:10;;;;;;;2.70;2.50;;;;;;;13.65;100.00;100802.84;5035462;28;20029;-78
2023/08/27 02:21:36;;;;;;;3.10;2.67;;;;;;;13.67;100.00;100803.56;5035534;28;20032;-78
2023/08/27 02:24:01;;;;;;;6.20;2.47;;;;;;;13.65;100.00;100808.97;5048023;28;20126;-77
2023/08/27 02:26:27;;;;;;;4.28;2.83;;;;;;;13.64;100.00;100806.47;5051747;28;20350;-78
2023/08/27 02:28:54;;;;;;;3.33;2.50;;;;;;;13.63;100.00;100797.69;5051991;28;20047;-78
2023/08/27 02:31:19;;;;;;;4.10;2.63;;;;;;;13.62;100.00;100803.97;5051484;28;20452;-77
2023/08/27 02:33:44;;;;;;;3.47;2.60;;;;;;;13.65;100.00;100808.13;5051259;28;20095;-77
2023/08/27 02:36:10;;;;;;;3.08;2.78;;;;;;;13.63;100.00;100805.63;5028526;28;20386;-77
2023/08/27 02:38:35;;;;;;;4.22;2.55;;;;;;;13.65;100.00;100814.25;5044058;28;20025;-77
2023/08/27 02:41:01;;;;;;;4.35;3.05;;;;;;;13.67;100.00;100803.56;5031260;28;20025;-77
2023/08/27 02:43:27;;;;;;;4.15;3.08;;;;;;;13.67;100.00;100807.03;5063747;28;20029;-77
2023/08/27 02:45:52;;;;;;;4.20;3.13;;;;;;;13.67;100.00;100795.63;5049785;28;20025;-77
2023/08/27 02:48:17;;;;;;;3.67;2.90;;;;;;;13.62;100.00;100798.66;5050836;28;20044;-77
2023/08/27 02:50:43;;;;;;;3.95;3.30;;;;;;;13.64;100.00;100802.00;5048897;28;20017;-77
2023/08/27 02:53:08;;;;;;;3.97;2.90;;;;;;;13.67;100.00;100812.31;5031257;28;20031;-77
2023/08/27 02:55:34;;;;;;;3.67;3.17;;;;;;;13.64;100.00;100811.75;5028622;28;20121;-77
2023/08/27 02:58:00;;;;;;;4.50;3.35;;;;;;;13.66;100.00;100804.53;5040047;28;20021;-77
2023/08/27 03:00:26;;;;;;;4.45;3.13;;;;;;;13.69;100.00;100807.72;5032482;28;20029;-77
2023/08/27 03:02:51;;;;;;;4.45;3.13;;;;;;;13.71;100.00;100808.44;5051902;28;20439;-78
2023/08/27 03:05:17;;;;;;;3.25;2.90;;;;;;;13.71;100.00;100813.72;5048898;28;20116;-78
2023/08/27 03:07:42;;;;;;;4.05;3.28;;;;;;;13.71;100.00;100808.44;5048678;28;20428;-78
2023/08/27 03:10:13;;;;;;;6.38;3.30;;;;;;;13.73;100.00;100806.50;5043046;28;20040;-78
2023/08/27 03:12:38;;;;;;;3.88;3.20;;;;;;;13.72;100.00;100802.16;5027260;28;20044;-78
2023/08/27 03:15:04;;;;;;;4.15;3.30;;;;;;;13.76;100.00;100816.78;5035782;28;20029;-77
2023/08/27 03:17:29;;;;;;;3.47;3.17;;;;;;;13.78;100.00;100819.31;5030083;28;20037;-77
2023/08/27 03:19:55;;;;;;;4.78;3.53;;;;;;;13.78;100.00;100814.00;5056542;28;20060;-77
2023/08/27 03:22:20;;;;;;;3.28;2.97;;;;;;;13.77;100.00;100815.81;5030816;28;20707;-77
2023/08/27 03:24:46;;;;;;;4.65;3.28;;;;;;;13.75;100.00;100815.13;5030627;28;20112;-76
2023/08/27 03:27:12;;;;;;;5.80;3.42;;;;;;;13.75;100.00;100828.34;5033193;28;20029;-77
2023/08/27 03:29:40;;;;;;;5.63;3.38;;;;;;;13.73;100.00;100822.34;5029492;28;20034;-76
2023/08/27 03:32:06;;;;;;;6.75;3.53;;;;;;;13.73;100.00;100825.00;5010995;28;20107;-76
2023/08/27 03:34:31;;;;;;;7.95;3.45;;;;;;;13.72;100.00;100810.09;5010280;28;20077;-77
2023/08/27 03:36:57;;;;;;;4.78;3.40;;;;;;;13.73;100.00;100805.66;5023979;28;20024;-77
2023/08/27 03:39:22;;;;;;;5.13;3.35;;;;;;;13.69;100.00;100794.50;5048951;28;20024;-76
2023/08/27 03:41:48;;;;;;;5.75;3.22;;;;;;;13.68;100.00;100792.84;5048376;28;20120;-76
2023/08/27 03:44:13;;;;;;;6.95;3.45;;;;;;;13.64;100.00;100786.16;5049198;28;20074;-76
2023/08/27 03:46:42;;;;;;;5.70;3.50;;;;;;;13.64;100.00;100774.75;5032589;28;20053;-76
2023/08/27 03:49:10;;;;;;;5.35;3.30;;;;;;;13.66;100.00;100778.91;5050444;28;20075;-77
2023/08/27 03:51:36;;;;;;;7.00;3.10;;;;;;;13.64;100.00;100780.84;5050371;28;20099;-78
2023/08/27 03:54:02;;;;;;;7.50;3.40;;;;;;;13.66;100.00;100781.56;5046435;28;20032;-78
2023/08/27 03:56:28;;;;;;;3.83;2.75;;;;;;;13.64;100.00;100780.84;5047658;28;20111;-78
2023/08/27 03:58:53;;;;;;;4.00;2.97;;;;;;;13.64;100.00;100774.75;5050970;28;20108;-78
2023/08/27 04:01:19;;;;;;;4.55;3.00;;;;;;;13.62;100.00;100772.22;5050706;28;20108;-78
2023/08/27 04:03:44;;;;;;;4.55;2.90;;;;;;;13.67;100.00;100780.59;5031364;28;20026;-78
2023/08/27 04:06:10;;;;;;;9.48;3.58;;;;;;;13.67;100.00;100779.75;5035161;28;20029;-78
2023/08/27 04:08:36;;;;;;;4.70;3.10;;;;;;;13.68;100.00;100778.78;5050181;28;20687;-78
2023/08/27 04:11:03;;;;;;;3.92;3.20;;;;;;;13.66;100.00;100773.63;5042529;28;20037;-78
2023/08/27 04:13:29;;;;;;;6.05;3.55;;;;;;;13.70;100.00;100766.25;5047003;28;20411;-78
2023/08/27 04:16:03;;;;;;;3.90;3.40;;;;;;;13.70;100.00;100772.38;5037282;28;20786;-78
2023/08/27 04:18:29;;;;;;;4.93;3.22;;;;;;;13.66;100.00;100773.63;5061927;28;20083;-78
2023/08/27 04:20:55;;;;;;;6.95;3.95;;;;;;;13.68;100.00;100779.63;5023844;28;20493;-78
2023/08/27 04:23:20;;;;;;;8.82;3.30;;;;;;;13.69;100.00;100786.56;5028067;28;20061;-78
2023/08/27 04:25:47;;;;;;;6.85;3.60;;;;;;;13.65;100.00;100787.81;5036065;28;20032;-78
2023/08/27 04:28:13;;;;;;;3.72;3.20;;;;;;;13.66;100.00;100781.56;5049296;28;20050;-78
2023/08/27 04:30:38;;;;;;;4.57;3.58;;;;;;;13.64;100.00;100778.22;5043717;28;20030;-78
2023/08/27 04:33:07;;;;;;;5.13;3.45;;;;;;;13.66;100.00;100778.91;5045853;28;20477;-77
2023/08/27 04:35:33;;;;;;;6.75;3.60;;;;;;;13.69;100.00;100780.44;5043888;28;20432;-77
2023/08/27 04:37:59;;;;;;;4.65;3.85;;;;;;;13.66;100.00;100778.91;5020889;28;20029;-77
2023/08/27 04:40:25;;;;;;;4.47;3.47;;;;;;;13.64;100.00;100775.56;5029507;28;20529;-77
2023/08/27 04:42:50;;;;;;;6.38;3.53;;;;;;;13.61;100.00;100774.97;5060508;28;20120;-77
2023/08/27 04:45:16;;;;;;;5.28;3.65;;;;;;;13.61;100.00;100770.56;5028834;28;20021;-77
2023/08/27 04:47:41;;;;;;;5.70;3.63;;;;;;;13.62;100.00;100777.53;5025924;28;20551;-77
2023/08/27 04:50:08;;;;;;;6.80;3.53;;;;;;;13.59;100.00;100783.03;5026145;28;20065;-77
2023/08/27 04:52:37;;;;;;;4.20;3.35;;;;;;;13.60;100.00;100789.16;5040996;28;20043;-77
2023/08/27 04:55:06;;;;;;;4.70;3.75;;;;;;;13.64;100.00;100796.72;5037168;28;20474;-77
2023/08/27 04:57:32;;;;;;;4.68;3.60;;;;;;;13.61;100.00;100797.00;5035216;28;20079;-77
2023/08/27 04:59:57;;;;;;;5.15;3.42;;;;;;;13.57;100.00;100798.19;5034541;28;20559;-77
2023/08/27 05:02:23;;;;;;;4.55;3.80;;;;;;;13.53;100.00;100794.16;5027458;28;20108;-77
2023/08/27 05:04:48;;;;;;;5.72;3.90;;;;;;;13.56;100.00;100798.34;5029119;28;20395;-77
2023/08/27 05:07:13;;;;;;;5.10;3.30;;;;;;;13.56;100.00;100806.28;5019024;28;20025;-78
2023/08/27 05:09:39;;;;;;;5.80;3.72;;;;;;;13.55;100.00;100805.44;5029584;28;20018;-77
2023/08/27 05:12:04;;;;;;;6.45;3.53;;;;;;;13.56;100.00;100804.47;5033515;28;20033;-78
2023/08/27 05:14:30;;;;;;;5.65;3.78;;;;;;;13.54;100.00;100806.41;5044920;28;20028;-77
2023/08/27 05:16:55;;;;;;;5.13;3.40;;;;;;;13.58;100.00;100806.97;5046294;28;20029;-78
2023/08/27 05:19:21;;;;;;;5.07;3.83;;;;;;;13.56;100.00;100804.47;5047504;28;20596;-77
2023/08/27 05:21:46;;;;;;;8.95;4.25;;;;;;;13.60;100.00;100808.50;5031292;28;20045;-76
2023/08/27 05:24:11;;;;;;;6.80;3.85;;;;;;;13.65;100.00;100802.84;5031007;28;20025;-79
2023/08/27 05:26:37;;;;;;;7.88;4.57;;;;;;;13.66;100.00;100793.94;5033777;28;20032;-78
2023/08/27 05:29:04;;;;;;;8.02;4.60;;;;;;;13.67;100.00;100801.75;5032914;28;20091;-77
2023/08/27 05:31:29;;;;;;;6.63;4.80;;;;;;;13.66;100.00;100802.72;5031749;28;20116;-77
2023/08/27 05:33:55;;;;;;;7.43;5.80;;;;;;;13.66;100.00;100794.78;5027710;28;20116;-77
2023/08/27 05:36:21;;;;;;;7.03;5.55;;;;;;;13.72;100.00;100794.25;5060676;28;20029;-77
2023/08/27 05:38:47;;;;;;;7.55;5.25;;;;;;;13.67;100.00;100796.44;5029351;28;20046;-77
2023/08/27 05:41:12;;;;;;;8.02;5.55;;;;;;;13.71;100.00;100797.03;5021517;28;20476;-77
2023/08/27 05:43:38;;;;;;;8.10;4.32;;;;;;;13.71;100.00;100804.94;5033824;28;20029;-77
2023/08/27 05:46:03;;;;;;;7.55;4.60;;;;;;;13.76;100.00;100798.28;5041531;28;20032;-77
2023/08/27 05:48:28;;;;;;;6.93;4.30;;;;;;;13.73;100.00;100795.91;5064335;28;20446;-77
2023/08/27 05:50:54;;;;;;;10.77;4.60;;;;;;;13.76;100.00;100800.09;5033339;28;20163;-77
2023/08/27 05:53:19;;;;;;;9.43;4.32;;;;;;;13.73;100.00;100798.56;5039792;28;20489;-77
2023/08/27 05:55:44;;;;;;;6.43;3.83;;;;;;;13.69;100.00;100794.50;5048694;28;20040;-79
2023/08/27 05:58:10;;;;;;;5.75;3.65;;;;;;;13.75;100.00;100793.97;5049464;28;20032;-79
2023/08/27 06:00:36;;;;;;;6.70;4.45;;;;;;;13.78;100.00;100798.97;5033685;28;20099;-79
2023/08/27 06:03:01;;;;;;;7.30;4.10;;;;;;;13.80;100.00;100794.41;5046633;28;20894;-79
2023/08/27 06:05:27;;;;;;;5.28;4.22;;;;;;;13.85;100.00;100795.78;5048292;28;20309;-79
2023/08/27 06:07:52;;;;;;;7.97;4.10;;;;;;;13.93;100.00;100798.59;5052703;28;20048;-79
2023/08/27 06:10:17;;;;;;;7.25;4.28;;;;;;;13.96;100.00;100791.22;5050973;28;20031;-79
2023/08/27 06:12:43;;;;;;;5.00;3.67;;;;;;;13.93;100.00;100794.13;5047995;28;20033;-79
2023/08/27 06:15:08;;;;;;;5.32;4.00;;;;;;;13.99;100.00;100784.81;5050670;28;20491;-79
2023/08/27 06:17:34;;;;;;;6.20;3.97;;;;;;;13.96;100.00;100790.38;5028672;28;20030;-79
2023/08/27 06:19:59;;;;;;;10.63;3.90;;;;;;;13.98;100.00;100778.69;5040802;28;20028;-79
2023/08/27 06:22:25;;;;;;;5.82;3.63;;;;;;;14.03;100.00;100780.94;5050266;28;20029;-77
2023/08/27 06:24:50;;;;;;;7.00;3.92;;;;;;;14.02;100.00;100773.97;5043234;28;20090;-77
2023/08/27 06:27:16;;;;;;;6.50;3.75;;;;;;;14.02;100.00;100774.81;5052147;28;20669;-77
2023/08/27 06:29:45;;;;;;;7.40;4.15;;;;;;;14.08;100.00;100782.19;5048888;28;20556;-77
2023/08/27 06:32:10;;;;;;;7.13;4.18;;;;;;;14.05;100.00;100774.53;5047696;28;20037;-77
2023/08/27 06:34:36;;;;;;;6.60;4.43;;;;;;;14.11;100.00;100775.78;5037974;28;20033;-76
2023/08/27 06:37:01;;;;;;;5.38;3.92;;;;;;;14.11;100.00;100775.78;5040478;28;20385;-77
2023/08/27 06:39:26;;;;;;;5.45;3.72;;;;;;;14.14;100.00;100778.16;5037586;28;20839;-77
2023/08/27 06:41:52;;;;;;;4.82;3.90;;;;;;;14.15;100.00;100781.66;5041837;28;20029;-77
2023/08/27 06:44:18;;;;;;;7.88;4.10;;;;;;;14.15;100.00;100779.84;5050874;28;20061;-77
2023/08/27 06:46:43;;;;;;;6.97;4.22;;;;;;;14.22;100.00;100777.47;5051455;28;20489;-77
2023/08/27 06:49:09;;;;;;;5.32;4.18;;;;;;;14.26;100.00;100779.69;5051478;28;20066;-77
2023/08/27 06:51:34;;;;;;;5.60;4.30;;;;;;;14.34;100.00;100779.00;5026541;28;20084;-77
2023/08/27 06:54:00;;;;;;;5.15;4.10;;;;;;;14.38;100.00;100786.50;5034478;28;20111;-76
2023/08/27 06:56:26;;;;;;;5.82;4.18;;;;;;;14.37;100.00;100779.56;5050230;28;20048;-77
2023/08/27 06:58:51;;;;;;;5.90;4.38;;;;;;;14.46;100.00;100783.22;5050718;28;20027;-76
2023/08/27 07:01:16;;;;;;;6.53;4.22;;;;;;;14.50;100.00;100781.97;5044341;28;20048;-78
2023/08/27 07:03:42;;;;;;;8.35;4.43;;;;;;;14.61;100.00;100786.28;5049072;28;20051;-77
2023/08/27 07:06:09;;;;;;;6.18;4.07;;;;;;;14.74;100.00;100792.09;5041642;28;20067;-77
2023/08/27 07:08:35;;;;;;;7.88;4.57;;;;;;;14.85;100.00;100793.78;5027349;28;20026;-77
2023/08/27 07:11:00;;;;;;;6.82;4.20;;;;;;;14.94;100.00;100798.22;5031123;28;20029;-77
2023/08/27 07:13:26;;;;;;;6.72;4.43;;;;;;;15.13;100.00;100792.03;5030910;28;20120;-77
2023/08/27 07:15:52;;;;;;;10.27;4.32;;;;;;;15.31;100.00;100792.97;5033988;28;20033;-76
2023/08/27 07:18:17;;;;;;;5.90;3.92;;;;;;;15.45;100.00;100787.16;5050285;28;20072;-77
2023/08/27 07:20:42;;;;;;;7.97;4.40;;;;;;;15.60;100.00;100779.56;5050708;28;20019;-77
2023/08/27 07:23:08;;;;;;;6.78;4.10;;;;;;;15.73;100.00;100785.41;5042774;28;20075;-77
2023/08/27 07:25:34;;;;;;;6.55;3.97;;;;;;;15.92;100.00;100787.91;5042449;28;20036;-76
2023/08/27 07:27:59;;;;;;;6.75;4.30;;;;;;;16.09;100.00;100782.81;5051354;28;20048;-77
2023/08/27 07:30:24;;;;;;;9.05;4.60;;;;;;;16.15;100.00;100780.38;5033052;28;20680;-76
2023/08/27 07:32:51;;;;;;;6.13;3.80;;;;;;;16.22;100.00;100786.75;5030992;28;20551;-77
2023/08/27 07:35:17;;;;;;;7.85;4.00;;;;;;;16.36;100.00;100788.03;5029933;28;20025;-77
2023/08/27 07:37:43;;;;;;;7.90;3.92;;;;;;;16.44;100.00;100792.59;5031133;28;20485;-77
2023/08/27 07:40:11;;;;;;;5.85;3.90;;;;;;;16.67;100.00;100792.97;5035775;28;20056;-77
2023/08/27 07:42:37;;;;;;;7.25;3.75;;;;;;;16.72;100.00;100796.00;5018427;28;20088;-77
2023/08/27 07:45:03;;;;;;;7.47;3.65;;;;;;;16.79;100.00;100794.38;5014284;28;20398;-76
2023/08/27 07:47:29;;;;;;;8.48;3.90;;;;;;;16.82;100.00;100792.28;5025721;28;20136;-77
2023/08/27 07:49:54;;;;;;;11.20;4.10;;;;;;;16.77;100.00;100794.53;5028693;28;20099;-77
2023/08/27 07:52:19;;;;;;;9.00;4.40;;;;;;;16.76;100.00;100784.91;5030146;28;20021;-77
2023/08/27 07:54:45;;;;;;;6.50;4.25;;;;;;;16.83;100.00;100783.31;5039662;28;20025;-77
2023/08/27 07:57:10;;;;;;;12.90;4.60;;;;;;;16.84;100.00;100790.28;5039065;28;20112;-76
2023/08/27 07:59:35;;;;;;;6.00;4.13;;;;;;;17.08;100.00;100789.59;5022858;28;20021;-77
2023/08/27 08:02:01;;;;;;;10.02;4.22;;;;;;;17.39;100.00;100781.97;5029527;28;20029;-76
2023/08/27 08:04:26;;;;;;;5.95;4.10;;;;;;;17.53;100.00;100784.03;5016762;28;20014;-76
2023/08/27 08:06:51;;;;;;;5.65;3.83;;;;;;;17.55;100.00;100782.03;5028657;28;20515;-76
2023/08/27 08:09:17;;;;;;;6.88;3.70;;;;;;;17.49;100.00;100779.19;5038888;28;20025;-76
2023/08/27 08:11:42;;;;;;;8.00;4.20;;;;;;;17.31;100.00;100779.28;5032991;28;20547;-76
2023/08/27 08:14:08;;;;;;;8.10;4.10;;;;;;;17.46;100.00;100782.16;5030471;28;20501;-75
2023/08/27 08:16:33;;;;;;;6.43;3.85;;;;;;;17.40;100.00;100775.66;5021087;28;20394;-76
2023/08/27 08:18:58;;;;;;;6.53;4.03;;;;;;;17.51;100.00;100782.50;5010647;28;20022;-76
2023/08/27 08:21:24;;;;;;;5.63;3.65;;;;;;;17.60;100.00;100775.41;5018096;28;20033;-76
2023/08/27 08:23:49;;;;;;;6.35;3.97;;;;;;;17.71;99.47;100780.47;5030366;28;20508;-76
2023/08/27 08:26:14;;;;;;;7.93;3.78;;;;;;;18.07;97.53;100779.25;5037108;28;20492;-76
2023/08/27 08:28:40;;;;;;;6.28;3.70;;;;;;;18.36;95.78;100792.09;5037815;28;20033;-76
2023/08/27 08:31:05;;;;;;;7.43;3.90;;;;;;;18.58;93.88;100787.94;5027487;28;20025;-76
2023/08/27 08:33:31;;;;;;;7.32;3.60;;;;;;;18.78;91.04;100797.28;5027752;28;20025;-75
2023/08/27 08:35:56;;;;;;;6.40;3.35;;;;;;;18.90;90.42;100783.63;5030874;28;20055;-74
2023/08/27 08:38:22;;;;;;;6.88;3.25;;;;;;;19.09;88.80;100796.56;5037810;28;20028;-74
2023/08/27 08:40:58;;;;;;;7.47;3.30;;;;;;;19.38;88.60;100794.19;5027633;28;20021;-74
2023/08/27 08:43:35;;;;;;;4.07;2.50;;;;;;;19.39;87.28;100785.16;5033304;28;20060;-74
2023/08/27 08:46:13;;;;;;;6.60;2.88;;;;;;;19.45;84.24;100796.16;5029719;28;20452;-74
2023/08/27 08:48:41;;;;;;;5.95;2.88;;;;;;;19.64;85.62;100790.47;5029775;28;20620;-74
2023/08/27 08:51:11;;;;;;;5.90;2.70;;;;;;;19.78;83.06;100783.53;5022880;28;20036;-74
2023/08/27 08:53:44;;;;;;;4.70;2.55;;;;;;;19.78;83.55;100787.03;5042625;28;20029;-75
2023/08/27 08:56:14;;;;;;;4.03;2.20;;;;;;;19.67;81.42;100792.78;5043088;28;20031;-75
2023/08/27 08:58:50;;;;;;;3.95;1.90;;;;;;;19.42;80.20;100787.50;5030443;28;20744;-75
2023/08/27 09:01:17;;;;;;;7.15;2.22;;;;;;;19.01;79.91;100791.28;5027303;28;20041;-75
2023/08/27 09:03:44;;;;;;;4.75;2.10;;;;;;;18.67;81.16;100794.13;5057673;28;20025;-75
2023/08/27 09:06:10;;;;;;;7.80;2.10;;;;;;;18.41;81.83;100783.59;5015898;28;20537;-75
2023/08/27 09:08:37;;;;;;;5.10;2.10;;;;;;;18.28;83.05;100783.25;5036781;28;20108;-75
2023/08/27 09:11:02;;;;;;;5.28;2.00;;;;;;;18.56;86.40;100784.63;5028411;28;20482;-76
2023/08/27 09:13:28;;;;;;;5.45;2.17;;;;;;;18.94;81.71;100775.13;5028021;28;20039;-75
2023/08/27 09:15:54;;;;;;;5.22;2.10;;;;;;;19.35;79.42;100761.66;5032016;28;20021;-75
2023/08/27 09:18:19;;;;;;;5.35;2.05;;;;;;;19.78;77.76;100763.00;5035483;28;20025;-75
2023/08/27 09:20:45;;;;;;;3.70;1.58;;;;;;;20.10;75.75;100761.97;5035790;28;20033;-76
2023/08/27 09:23:11;;;;;;;6.53;1.77;;;;;;;20.49;73.54;100761.88;5038262;28;20420;-75
2023/08/27 09:25:38;;;;;;;5.55;2.05;;;;;;;20.52;71.16;100758.84;5028891;28;20075;-75
2023/08/27 09:28:05;;;;;;;3.50;1.60;;;;;;;20.62;74.65;100762.09;5036159;28;20473;-76
2023/08/27 09:30:31;;;;;;;5.82;1.75;;;;;;;20.78;72.68;100749.56;5049346;28;20452;-76
2023/08/27 09:32:56;;;;;;;5.82;2.00;;;;;;;20.83;69.88;100747.22;5035600;28;20056;-75
2023/08/27 09:35:22;;;;;;;5.35;1.98;;;;;;;20.59;69.18;100751.78;5040555;28;20025;-75
2023/08/27 09:37:47;;;;;;;4.93;1.70;;;;;;;20.29;69.48;100745.47;5033865;28;20021;-75
2023/08/27 09:40:18;;;;;;;4.72;1.63;;;;;;;20.17;71.87;100741.56;5040840;28;20051;-75
2023/08/27 09:42:44;;;;;;;3.97;1.52;;;;;;;20.22;71.10;100739.19;5030874;28;20033;-75
2023/08/27 09:45:09;;;;;;;4.93;1.70;;;;;;;20.38;72.14;100738.22;5037044;28;20051;-76
2023/08/27 09:47:39;;;;;;;4.25;1.75;;;;;;;20.37;70.54;100736.53;5035136;28;20050;-75
2023/08/27 09:50:22;;;;;;;4.47;1.60;;;;;;;20.68;74.35;100727.63;5038150;28;20037;-76
2023/08/27 09:52:48;;;;;;;6.32;1.83;;;;;;;20.80;70.41;100735.00;5026087;28;20025;-76
2023/08/27 09:55:14;;;;;;;4.90;1.85;;;;;;;20.60;69.17;100742.72;5039525;28;20017;-75
2023/08/27 09:57:47;;;;;;;4.85;1.73;;;;;;;20.48;71.59;100743.34;5043880;28;20021;-76
2023/08/27 10:00:13;;;;;;;5.10;1.50;;;;;;;20.72;71.23;100734.25;5032141;28;20025;-76
2023/08/27 10:02:42;;;;;;;3.95;1.45;;;;;;;20.84;68.17;100730.97;5041352;28;20539;-75
2023/08/27 10:05:08;;;;;;;4.45;1.35;;;;;;;21.01;68.93;100728.94;5033436;28;20482;-76
2023/08/27 10:07:34;;;;;;;4.55;1.75;;;;;;;21.11;68.52;100729.50;5039804;28;20752;-76
2023/08/27 10:10:00;;;;;;;4.90;1.48;;;;;;;21.21;66.06;100724.72;5034076;28;20072;-76
2023/08/27 10:12:27;;;;;;;6.10;1.52;;;;;;;21.21;67.36;100727.41;5038068;28;20057;-76
2023/08/27 10:14:52;;;;;;;4.70;1.70;;;;;;;21.16;68.54;100737.78;5029674;28;20544;-77
2023/08/27 10:17:17;;;;;;;6.63;1.50;;;;;;;21.40;69.14;100733.22;5046549;28;20022;-76
2023/08/27 10:19:43;;;;;;;5.05;1.63;;;;;;;21.45;65.19;100730.81;5036285;28;20075;-74
2023/08/27 10:22:10;;;;;;;5.30;1.50;;;;;;;21.51;65.56;100732.72;5033127;28;20071;-74
2023/08/27 10:24:36;;;;;;;5.03;1.20;;;;;;;21.76;63.87;100738.59;5038629;28;20034;-74
2023/08/27 10:27:06;;;;;;;2.78;1.10;;;;;;;22.03;64.25;100732.53;5032153;28;20482;-74
2023/08/27 10:29:33;;;;;;;6.32;1.77;;;;;;;21.96;60.78;100722.72;5030794;28;20021;-75
2023/08/27 10:31:59;;;;;;;4.70;1.40;;;;;;;21.75;61.28;100728.91;5033251;28;20060;-75
2023/08/27 10:34:28;;;;;;;3.83;1.30;;;;;;;21.59;61.85;100716.53;5027380;28;21938;-74
2023/08/27 10:36:56;;;;;;;5.93;1.42;;;;;;;21.43;63.03;100727.47;5029585;28;20399;-75
2023/08/27 10:39:26;;;;;;;3.78;1.15;;;;;;;20.95;64.28;100725.16;5030606;28;20018;-75
2023/08/27 10:41:52;;;;;;;4.45;1.45;;;;;;;20.69;65.07;100737.31;5030642;28;20033;-75
2023/08/27 10:44:20;;;;;;;5.70;1.70;;;;;;;20.59;68.61;100751.78;5062487;28;20032;-75
2023/08/27 10:47:13;;;;;;;5.15;1.55;;;;;;;20.96;68.62;100742.06;5031936;28;20460;-75
2023/08/27 10:49:40;;;;;;;2.47;1.10;;;;;;;20.89;63.56;100743.81;5031338;28;20029;-78
2023/08/27 10:52:18;;;;;;;3.97;1.33;;;;;;;20.89;67.69;100747.31;5031989;28;20029;-75
2023/08/27 10:54:46;;;;;;;3.92;1.30;;;;;;;20.90;64.82;100743.63;5028467;28;20025;-75
2023/08/27 10:57:21;;;;;;;3.13;1.20;;;;;;;20.76;65.92;100740.91;5034094;28;20021;-77
2023/08/27 10:59:47;;;;;;;4.13;1.00;;;;;;;20.73;66.03;100735.94;5031362;28;20037;-75
2023/08/27 11:02:15;;;;;;;5.57;1.40;;;;;;;20.89;66.65;100741.13;5031903;28;20393;-75
2023/08/27 11:04:43;;;;;;;3.55;1.10;;;;;;;21.29;61.22;100737.19;5038116;28;20029;-75
2023/08/27 11:07:14;;;;;;;5.45;1.60;;;;;;;21.54;60.99;100737.69;5031796;28;20021;-74
2023/08/27 11:09:48;;;;;;;2.17;0.90;;;;;;;21.48;60.88;100736.59;5042370;28;20185;-74
2023/08/27 11:12:40;;;;;;;1.88;0.80;;;;;;;21.38;61.98;100740.59;5031145;28;20032;-80
2023/08/27 11:15:15;;;;;;;2.83;0.80;;;;;;;20.97;61.33;100743.72;5034886;28;20048;-80
2023/08/27 11:17:45;;;;;;;2.28;1.00;;;;;;;20.65;61.48;100753.72;5029955;28;20070;-83